createdAt,value
2016-12-03T00:00:13.467Z,989.03
2016-12-03T00:01:22.150Z,989.08
2016-12-03T00:02:30.845Z,989.05
2016-12-03T00:03:39.530Z,989.07
2016-12-03T00:04:48.543Z,989.01
2016-12-03T00:05:57.265Z,989.01
2016-12-03T00:07:05.949Z,989.06
2016-12-03T00:08:14.633Z,988.96
2016-12-03T00:09:23.319Z,989.02
2016-12-03T00:10:32.349Z,989.06
2016-12-03T00:11:41.030Z,988.99
2016-12-03T00:12:49.717Z,988.95
2016-12-03T00:13:58.397Z,988.94
2016-12-03T00:15:07.080Z,988.91
2016-12-03T00:16:15.760Z,988.98
2016-12-03T00:17:24.442Z,988.97
2016-12-03T00:18:33.124Z,988.91
2016-12-03T00:19:41.804Z,988.9
2016-12-03T00:20:50.487Z,988.93
2016-12-03T00:21:59.167Z,988.97
2016-12-03T00:23:07.850Z,988.92
2016-12-03T00:24:16.530Z,988.98
2016-12-03T00:25:25.214Z,988.95
2016-12-03T00:26:33.890Z,988.95
2016-12-03T00:27:42.574Z,988.9
2016-12-03T00:28:51.253Z,988.93
2016-12-03T00:29:59.935Z,988.87
2016-12-03T00:31:08.614Z,988.9
2016-12-03T00:32:17.646Z,988.98
2016-12-03T00:33:26.325Z,988.92
2016-12-03T00:34:35.007Z,988.95
2016-12-03T00:35:43.692Z,988.99
2016-12-03T00:36:52.373Z,988.88
2016-12-03T00:38:01.056Z,988.9
2016-12-03T00:39:09.739Z,988.88
2016-12-03T00:40:18.445Z,988.83
2016-12-03T00:41:27.127Z,988.93
2016-12-03T00:42:35.810Z,988.9
2016-12-03T00:43:44.503Z,988.95
2016-12-03T00:44:53.185Z,988.87
2016-12-03T00:46:01.876Z,988.81
2016-12-03T00:47:10.560Z,988.82
2016-12-03T00:48:19.253Z,988.83
2016-12-03T00:49:27.936Z,988.88
2016-12-03T00:50:36.617Z,988.85
2016-12-03T00:51:45.295Z,988.82
2016-12-03T00:52:54.073Z,988.81
2016-12-03T00:54:02.761Z,988.81
2016-12-03T00:55:11.448Z,988.82
2016-12-03T00:56:20.131Z,988.82
2016-12-03T00:57:28.812Z,988.79
2016-12-03T00:58:37.492Z,988.78
2016-12-03T00:59:46.200Z,988.8
2016-12-03T01:00:54.882Z,988.81
2016-12-03T01:02:03.569Z,988.79
2016-12-03T01:03:12.252Z,988.84
2016-12-03T01:04:20.937Z,988.8
2016-12-03T01:05:29.620Z,988.81
2016-12-03T01:06:38.332Z,988.75
2016-12-03T01:07:47.015Z,988.74
2016-12-03T01:08:55.695Z,988.68
2016-12-03T01:10:04.381Z,988.65
2016-12-03T01:11:13.067Z,988.62
2016-12-03T01:12:21.767Z,988.63
2016-12-03T01:13:30.449Z,988.64
2016-12-03T01:14:39.130Z,988.66
2016-12-03T01:15:47.814Z,988.66
2016-12-03T01:16:56.496Z,988.67
2016-12-03T01:18:05.180Z,988.74
2016-12-03T01:19:14.177Z,988.65
2016-12-03T01:20:23.180Z,988.72
2016-12-03T01:21:31.865Z,988.7
2016-12-03T01:22:40.544Z,988.7
2016-12-03T01:23:49.224Z,988.73
2016-12-03T01:24:57.934Z,988.77
2016-12-03T01:26:06.930Z,988.74
2016-12-03T01:27:15.615Z,988.75
2016-12-03T01:28:24.300Z,988.71
2016-12-03T01:29:32.981Z,988.79
2016-12-03T01:30:41.663Z,988.76
2016-12-03T01:31:50.348Z,988.7
2016-12-03T01:32:59.030Z,988.7
2016-12-03T01:34:07.710Z,988.7
2016-12-03T01:35:16.391Z,988.73
2016-12-03T01:36:25.073Z,988.7
2016-12-03T01:37:33.756Z,988.71
2016-12-03T01:38:42.816Z,988.68
2016-12-03T01:39:51.500Z,988.7
2016-12-03T01:41:00.186Z,988.68
2016-12-03T01:42:08.866Z,988.71
2016-12-03T01:43:17.547Z,988.67
2016-12-03T01:44:26.223Z,988.68
2016-12-03T01:45:34.904Z,988.75
2016-12-03T01:46:43.588Z,988.69
2016-12-03T01:47:52.267Z,988.7
2016-12-03T01:49:00.949Z,988.76
2016-12-03T01:50:09.631Z,988.68
2016-12-03T01:51:18.312Z,988.75
2016-12-03T01:52:26.994Z,988.79
2016-12-03T01:53:35.678Z,988.74
2016-12-03T01:54:44.362Z,988.72
2016-12-03T01:55:53.041Z,988.8
2016-12-03T01:57:01.725Z,988.72
2016-12-03T01:58:10.406Z,988.73
2016-12-03T01:59:19.087Z,988.72
2016-12-03T02:00:27.773Z,988.78
2016-12-03T02:01:36.454Z,988.68
2016-12-03T02:02:45.134Z,988.75
2016-12-03T02:03:53.815Z,988.72
2016-12-03T02:05:02.499Z,988.78
2016-12-03T02:06:11.181Z,988.7
2016-12-03T02:07:19.862Z,988.68
2016-12-03T02:08:28.543Z,988.78
2016-12-03T02:09:37.227Z,988.78
2016-12-03T02:10:45.909Z,988.76
2016-12-03T02:11:54.910Z,988.71
2016-12-03T02:13:03.595Z,988.72
2016-12-03T02:14:12.278Z,988.69
2016-12-03T02:15:20.957Z,988.67
2016-12-03T02:16:29.669Z,988.69
2016-12-03T02:17:38.346Z,988.71
2016-12-03T02:18:47.029Z,988.71
2016-12-03T02:19:55.714Z,988.68
2016-12-03T02:21:04.709Z,988.65
2016-12-03T02:22:13.391Z,988.66
2016-12-03T02:23:22.120Z,988.59
2016-12-03T02:24:30.806Z,988.61
2016-12-03T02:25:39.487Z,988.66
2016-12-03T02:26:48.205Z,988.58
2016-12-03T02:27:56.891Z,988.56
2016-12-03T02:29:05.572Z,988.57
2016-12-03T02:30:14.284Z,988.55
2016-12-03T02:31:22.962Z,988.52
2016-12-03T02:32:31.642Z,988.59
2016-12-03T02:33:40.355Z,988.57
2016-12-03T02:34:49.036Z,988.55
2016-12-03T02:35:57.748Z,988.54
2016-12-03T02:37:06.431Z,988.5
2016-12-03T02:38:15.113Z,988.47
2016-12-03T02:39:23.819Z,988.48
2016-12-03T02:40:32.499Z,988.54
2016-12-03T02:41:41.185Z,988.5
2016-12-03T02:42:49.861Z,988.49
2016-12-03T02:43:58.548Z,988.5
2016-12-03T02:45:07.229Z,988.51
2016-12-03T02:46:15.914Z,988.47
2016-12-03T02:47:24.593Z,988.48
2016-12-03T02:48:33.281Z,988.48
2016-12-03T02:49:41.985Z,988.48
2016-12-03T02:50:50.668Z,988.5
2016-12-03T02:51:59.354Z,988.45
2016-12-03T02:53:08.032Z,988.46
2016-12-03T02:54:16.716Z,988.45
2016-12-03T02:55:25.434Z,988.45
2016-12-03T02:56:34.115Z,988.46
2016-12-03T02:57:42.800Z,988.45
2016-12-03T02:58:51.483Z,988.43
2016-12-03T03:00:00.165Z,988.44
2016-12-03T03:01:08.879Z,988.38
2016-12-03T03:02:17.574Z,988.41
2016-12-03T03:03:26.255Z,988.38
2016-12-03T03:04:34.932Z,988.38
2016-12-03T03:05:43.621Z,988.41
2016-12-03T03:06:52.300Z,988.38
2016-12-03T03:08:00.984Z,988.36
2016-12-03T03:09:09.670Z,988.38
2016-12-03T03:10:18.366Z,988.37
2016-12-03T03:11:27.044Z,988.4
2016-12-03T03:12:35.719Z,988.41
2016-12-03T03:13:44.400Z,988.37
2016-12-03T03:14:53.120Z,988.36
2016-12-03T03:16:01.806Z,988.35
2016-12-03T03:17:10.487Z,988.38
2016-12-03T03:18:19.170Z,988.39
2016-12-03T03:19:27.848Z,988.37
2016-12-03T03:20:36.527Z,988.36
2016-12-03T03:21:45.210Z,988.4
2016-12-03T03:22:53.895Z,988.4
2016-12-03T03:24:02.578Z,988.43
2016-12-03T03:25:11.252Z,988.42
2016-12-03T03:26:19.936Z,988.41
2016-12-03T03:27:28.645Z,988.41
2016-12-03T03:28:37.327Z,988.39
2016-12-03T03:29:46.010Z,988.37
2016-12-03T03:30:54.717Z,988.37
2016-12-03T03:32:03.398Z,988.36
2016-12-03T03:33:12.081Z,988.35
2016-12-03T03:34:20.765Z,988.41
2016-12-03T03:35:29.450Z,988.34
2016-12-03T03:36:38.133Z,988.33
2016-12-03T03:37:46.815Z,988.33
2016-12-03T03:38:55.504Z,988.36
2016-12-03T03:40:04.193Z,988.36
2016-12-03T03:41:12.880Z,988.32
2016-12-03T03:42:21.560Z,988.34
2016-12-03T03:43:30.272Z,988.33
2016-12-03T03:44:38.976Z,988.3
2016-12-03T03:45:47.654Z,988.3
2016-12-03T03:46:56.337Z,988.33
2016-12-03T03:48:05.027Z,988.3
2016-12-03T03:49:13.710Z,988.25
2016-12-03T03:50:22.392Z,988.27
2016-12-03T03:51:31.071Z,988.28
2016-12-03T03:52:39.753Z,988.26
2016-12-03T03:53:48.753Z,988.31
2016-12-03T03:54:57.442Z,988.3
2016-12-03T03:56:06.132Z,988.31
2016-12-03T03:57:14.821Z,988.25
2016-12-03T03:58:23.497Z,988.29
2016-12-03T03:59:32.181Z,988.25
2016-12-03T04:00:40.867Z,988.25
2016-12-03T04:01:49.551Z,988.24
2016-12-03T04:02:58.240Z,988.25
2016-12-03T04:04:07.238Z,988.22
2016-12-03T04:05:15.922Z,988.25
2016-12-03T04:06:24.604Z,988.23
2016-12-03T04:07:33.286Z,988.23
2016-12-03T04:08:41.969Z,988.26
2016-12-03T04:09:50.655Z,988.23
2016-12-03T04:10:59.340Z,988.25
2016-12-03T04:12:08.021Z,988.23
2016-12-03T04:13:16.701Z,988.24
2016-12-03T04:14:25.381Z,988.19
2016-12-03T04:15:34.065Z,988.2
2016-12-03T04:16:42.746Z,988.2
2016-12-03T04:17:51.434Z,988.2
2016-12-03T04:19:00.116Z,988.21
2016-12-03T04:20:08.808Z,988.18
2016-12-03T04:21:17.488Z,988.16
2016-12-03T04:22:26.173Z,988.21
2016-12-03T04:23:35.171Z,988.19
2016-12-03T04:24:43.852Z,988.21
2016-12-03T04:25:52.546Z,988.2
2016-12-03T04:27:01.246Z,988.2
2016-12-03T04:28:10.248Z,988.2
2016-12-03T04:29:18.929Z,988.25
2016-12-03T04:30:27.612Z,988.27
2016-12-03T04:31:36.295Z,988.27
2016-12-03T04:32:44.980Z,988.2
2016-12-03T04:33:53.666Z,988.2
2016-12-03T04:35:02.355Z,988.22
2016-12-03T04:36:11.039Z,988.18
2016-12-03T04:37:19.721Z,988.17
2016-12-03T04:38:28.440Z,988.15
2016-12-03T04:39:37.126Z,988.18
2016-12-03T04:40:45.809Z,988.19
2016-12-03T04:41:54.493Z,988.25
2016-12-03T04:43:03.180Z,988.2
2016-12-03T04:44:11.869Z,988.17
2016-12-03T04:45:20.552Z,988.16
2016-12-03T04:46:29.234Z,988.16
2016-12-03T04:47:37.973Z,988.15
2016-12-03T04:48:46.658Z,988.15
2016-12-03T04:49:55.339Z,988.07
2016-12-03T04:51:04.024Z,988.02
2016-12-03T04:52:12.705Z,988.01
2016-12-03T04:53:21.388Z,988.03
2016-12-03T04:54:30.066Z,988.06
2016-12-03T04:55:38.746Z,988.03
2016-12-03T04:56:47.424Z,988.05
2016-12-03T04:57:56.106Z,988.01
2016-12-03T04:59:04.796Z,988.04
2016-12-03T05:00:13.480Z,988
2016-12-03T05:01:22.163Z,987.98
2016-12-03T05:02:30.848Z,987.96
2016-12-03T05:03:39.529Z,987.96
2016-12-03T05:04:48.223Z,987.98
2016-12-03T05:05:56.940Z,987.98
2016-12-03T05:07:05.626Z,987.99
2016-12-03T05:08:14.335Z,988.04
2016-12-03T05:09:23.026Z,988.03
2016-12-03T05:10:31.719Z,988
2016-12-03T05:11:40.406Z,988.02
2016-12-03T05:12:49.091Z,988
2016-12-03T05:13:57.778Z,988
2016-12-03T05:15:06.472Z,987.95
2016-12-03T05:16:15.155Z,988.01
2016-12-03T05:17:23.845Z,988
2016-12-03T05:18:32.532Z,988.04
2016-12-03T05:19:41.245Z,988
2016-12-03T05:20:49.932Z,987.99
2016-12-03T05:21:58.930Z,988.02
2016-12-03T05:23:07.615Z,988.03
2016-12-03T05:24:16.298Z,988.03
2016-12-03T05:25:24.979Z,988.05
2016-12-03T05:26:33.686Z,988.02
2016-12-03T05:27:42.368Z,988.01
2016-12-03T05:28:51.050Z,988.01
2016-12-03T05:29:59.731Z,988.02
2016-12-03T05:31:08.415Z,987.99
2016-12-03T05:32:17.422Z,988.02
2016-12-03T05:33:27.421Z,987.99
2016-12-03T05:34:36.139Z,988.01
2016-12-03T05:35:44.823Z,988.01
2016-12-03T05:36:53.538Z,987.98
2016-12-03T05:38:02.227Z,987.99
2016-12-03T05:39:10.912Z,988.02
2016-12-03T05:40:19.598Z,987.97
2016-12-03T05:41:28.280Z,987.99
2016-12-03T05:42:36.962Z,987.99
2016-12-03T05:43:45.652Z,987.99
2016-12-03T05:44:54.332Z,987.95
2016-12-03T05:46:03.017Z,987.97
2016-12-03T05:47:11.701Z,987.96
2016-12-03T05:48:20.385Z,987.94
2016-12-03T05:49:29.395Z,987.92
2016-12-03T05:50:38.079Z,987.94
2016-12-03T05:51:46.791Z,987.97
2016-12-03T05:52:55.474Z,987.95
2016-12-03T05:54:04.159Z,987.92
2016-12-03T05:55:12.840Z,987.91
2016-12-03T05:56:21.525Z,987.91
2016-12-03T05:57:30.236Z,987.87
2016-12-03T05:58:38.922Z,987.88
2016-12-03T05:59:47.601Z,987.86
2016-12-03T06:00:56.283Z,987.89
2016-12-03T06:02:04.968Z,987.92
2016-12-03T06:03:13.964Z,987.91
2016-12-03T06:04:22.645Z,987.87
2016-12-03T06:05:31.330Z,987.9
2016-12-03T06:06:40.013Z,987.92
2016-12-03T06:07:48.730Z,987.9
2016-12-03T06:08:57.417Z,987.89
2016-12-03T06:10:06.103Z,987.83
2016-12-03T06:11:14.815Z,987.87
2016-12-03T06:12:23.495Z,987.86
2016-12-03T06:13:32.176Z,987.8
2016-12-03T06:14:40.861Z,987.79
2016-12-03T06:15:49.542Z,987.76
2016-12-03T06:16:58.224Z,987.74
2016-12-03T06:18:06.913Z,987.76
2016-12-03T06:19:15.920Z,987.74
2016-12-03T06:20:24.599Z,987.76
2016-12-03T06:21:33.282Z,987.73
2016-12-03T06:22:41.964Z,987.75
2016-12-03T06:23:50.664Z,987.73
2016-12-03T06:24:59.347Z,987.76
2016-12-03T06:26:08.035Z,987.74
2016-12-03T06:27:16.717Z,987.76
2016-12-03T06:28:25.403Z,987.79
2016-12-03T06:29:34.088Z,987.76
2016-12-03T06:30:42.772Z,987.77
2016-12-03T06:31:51.469Z,987.81
2016-12-03T06:33:00.156Z,987.79
2016-12-03T06:34:08.843Z,987.76
2016-12-03T06:35:17.529Z,987.78
2016-12-03T06:36:26.210Z,987.75
2016-12-03T06:37:34.890Z,987.72
2016-12-03T06:38:43.575Z,987.71
2016-12-03T06:39:52.259Z,987.7
2016-12-03T06:41:00.941Z,987.71
2016-12-03T06:42:09.622Z,987.72
2016-12-03T06:43:18.303Z,987.78
2016-12-03T06:44:27.309Z,987.79
2016-12-03T06:45:35.995Z,987.81
2016-12-03T06:46:44.680Z,987.84
2016-12-03T06:47:53.363Z,987.86
2016-12-03T06:49:02.079Z,987.9
2016-12-03T06:50:10.761Z,987.87
2016-12-03T06:51:19.447Z,987.82
2016-12-03T06:52:28.127Z,987.79
2016-12-03T06:53:36.813Z,987.81
2016-12-03T06:54:45.496Z,987.79
2016-12-03T06:55:54.187Z,987.81
2016-12-03T06:57:02.866Z,987.85
2016-12-03T06:58:11.550Z,987.86
2016-12-03T06:59:20.261Z,987.83
2016-12-03T07:00:28.946Z,987.87
2016-12-03T07:01:37.633Z,987.8
2016-12-03T07:02:46.315Z,987.8
2016-12-03T07:03:55.001Z,987.78
2016-12-03T07:05:03.688Z,987.77
2016-12-03T07:06:12.691Z,987.76
2016-12-03T07:07:21.374Z,987.76
2016-12-03T07:08:30.065Z,987.77
2016-12-03T07:09:38.748Z,987.79
2016-12-03T07:10:47.436Z,987.74
2016-12-03T07:11:56.122Z,987.77
2016-12-03T07:13:04.810Z,987.75
2016-12-03T07:14:13.500Z,987.77
2016-12-03T07:15:22.185Z,987.67
2016-12-03T07:16:30.869Z,987.7
2016-12-03T07:17:39.552Z,987.64
2016-12-03T07:18:48.233Z,987.62
2016-12-03T07:19:56.919Z,987.61
2016-12-03T07:21:05.606Z,987.64
2016-12-03T07:22:14.291Z,987.64
2016-12-03T07:23:22.978Z,987.65
2016-12-03T07:24:31.665Z,987.65
2016-12-03T07:25:40.348Z,987.67
2016-12-03T07:26:49.054Z,987.68
2016-12-03T07:27:57.739Z,987.7
2016-12-03T07:29:06.424Z,987.68
2016-12-03T07:30:15.109Z,987.69
2016-12-03T07:31:23.800Z,987.69
2016-12-03T07:32:32.483Z,987.7
2016-12-03T07:33:41.166Z,987.73
2016-12-03T07:34:49.849Z,987.81
2016-12-03T07:35:58.541Z,987.77
2016-12-03T07:37:07.231Z,987.74
2016-12-03T07:38:15.917Z,987.79
2016-12-03T07:39:24.604Z,987.78
2016-12-03T07:40:33.290Z,987.78
2016-12-03T07:41:41.971Z,987.76
2016-12-03T07:42:50.658Z,987.76
2016-12-03T07:43:59.342Z,987.73
2016-12-03T07:45:08.025Z,987.72
2016-12-03T07:46:16.741Z,987.78
2016-12-03T07:47:25.430Z,987.78
2016-12-03T07:48:34.110Z,987.77
2016-12-03T07:49:42.800Z,987.84
2016-12-03T07:50:51.491Z,987.82
2016-12-03T07:52:00.492Z,987.81
2016-12-03T07:53:09.179Z,987.86
2016-12-03T07:54:17.889Z,987.91
2016-12-03T07:55:26.575Z,987.91
2016-12-03T07:56:35.259Z,987.93
2016-12-03T07:57:43.942Z,987.91
2016-12-03T07:58:52.625Z,987.89
2016-12-03T08:00:01.315Z,987.9
2016-12-03T08:01:10.001Z,987.86
2016-12-03T08:02:18.686Z,987.86
2016-12-03T08:03:27.367Z,987.84
2016-12-03T08:04:36.054Z,987.88
2016-12-03T08:05:44.738Z,987.87
2016-12-03T08:06:53.430Z,987.85
2016-12-03T08:08:02.117Z,987.82
2016-12-03T08:09:10.808Z,987.81
2016-12-03T08:10:19.540Z,987.77
2016-12-03T08:11:28.251Z,987.73
2016-12-03T08:12:36.936Z,987.75
2016-12-03T08:13:45.618Z,987.74
2016-12-03T08:14:54.301Z,987.72
2016-12-03T08:16:03.305Z,987.79
2016-12-03T08:17:11.991Z,987.72
2016-12-03T08:18:20.673Z,987.74
2016-12-03T08:19:29.359Z,987.75
2016-12-03T08:20:38.040Z,987.73
2016-12-03T08:21:46.722Z,987.75
2016-12-03T08:22:55.407Z,987.74
2016-12-03T08:24:04.093Z,987.72
2016-12-03T08:25:12.777Z,987.71
2016-12-03T08:26:21.460Z,987.8
2016-12-03T08:27:30.145Z,987.8
2016-12-03T08:28:38.831Z,987.86
2016-12-03T08:29:47.513Z,987.82
2016-12-03T08:30:56.193Z,987.83
2016-12-03T08:32:04.895Z,987.87
2016-12-03T08:33:13.579Z,987.84
2016-12-03T08:34:22.261Z,987.84
2016-12-03T08:35:30.942Z,987.87
2016-12-03T08:36:39.640Z,987.87
2016-12-03T08:37:48.326Z,987.83
2016-12-03T08:38:57.009Z,987.83
2016-12-03T08:40:05.695Z,987.84
2016-12-03T08:41:14.379Z,987.86
2016-12-03T08:42:23.078Z,987.88
2016-12-03T08:43:31.768Z,987.84
2016-12-03T08:44:40.452Z,987.88
2016-12-03T08:45:49.146Z,987.88
2016-12-03T08:46:57.836Z,987.85
2016-12-03T08:48:06.521Z,987.84
2016-12-03T08:49:15.214Z,987.82
2016-12-03T08:50:23.925Z,987.86
2016-12-03T08:51:32.623Z,987.85
2016-12-03T08:52:41.310Z,987.88
2016-12-03T08:53:50.004Z,987.86
2016-12-03T08:54:59.010Z,987.88
2016-12-03T08:56:07.699Z,987.91
2016-12-03T08:57:16.384Z,987.96
2016-12-03T08:58:25.066Z,987.88
2016-12-03T08:59:33.750Z,987.86
2016-12-03T09:00:42.452Z,987.91
2016-12-03T09:01:51.138Z,988
2016-12-03T09:02:59.827Z,987.98
2016-12-03T09:04:08.516Z,987.94
2016-12-03T09:05:17.201Z,987.97
2016-12-03T09:06:25.884Z,987.97
2016-12-03T09:07:34.569Z,988.05
2016-12-03T09:08:43.257Z,988.06
2016-12-03T09:09:51.942Z,988.08
2016-12-03T09:11:00.944Z,988.09
2016-12-03T09:12:09.634Z,988.13
2016-12-03T09:13:18.638Z,988.15
2016-12-03T09:14:27.327Z,988.13
2016-12-03T09:15:36.013Z,988.09
2016-12-03T09:16:44.725Z,988.06
2016-12-03T09:17:53.404Z,988.07
2016-12-03T09:19:02.088Z,988.08
2016-12-03T09:20:10.771Z,988.08
2016-12-03T09:21:19.456Z,988.1
2016-12-03T09:22:28.141Z,988.12
2016-12-03T09:23:36.826Z,988.18
2016-12-03T09:24:45.507Z,988.15
2016-12-03T09:25:54.190Z,988.09
2016-12-03T09:27:02.882Z,988.04
2016-12-03T09:28:11.666Z,988.11
2016-12-03T09:29:20.355Z,988.11
2016-12-03T09:30:29.042Z,988.1
2016-12-03T09:31:37.727Z,988.18
2016-12-03T09:32:46.413Z,988.16
2016-12-03T09:33:55.243Z,988.12
2016-12-03T09:35:03.927Z,988.13
2016-12-03T09:36:12.622Z,988.12
2016-12-03T09:37:21.303Z,988.12
2016-12-03T09:38:29.991Z,988.09
2016-12-03T09:39:39.011Z,988.09
2016-12-03T09:40:47.693Z,988.14
2016-12-03T09:41:56.378Z,988.15
2016-12-03T09:43:05.060Z,988.21
2016-12-03T09:44:13.747Z,988.2
2016-12-03T09:45:22.433Z,988.17
2016-12-03T09:46:31.432Z,988.21
2016-12-03T09:47:40.435Z,988.22
2016-12-03T09:48:49.118Z,988.2
2016-12-03T09:49:57.802Z,988.19
2016-12-03T09:51:06.815Z,988.24
2016-12-03T09:52:15.504Z,988.23
2016-12-03T09:53:24.191Z,988.25
2016-12-03T09:54:32.877Z,988.29
2016-12-03T09:55:41.586Z,988.27
2016-12-03T09:56:50.271Z,988.23
2016-12-03T09:57:58.958Z,988.23
2016-12-03T09:59:07.644Z,988.26
2016-12-03T10:00:16.328Z,988.23
2016-12-03T10:01:25.013Z,988.22
2016-12-03T10:02:33.739Z,988.23
2016-12-03T10:03:42.423Z,988.2
2016-12-03T10:04:51.108Z,988.22
2016-12-03T10:05:59.808Z,988.19
2016-12-03T10:07:08.490Z,988.26
2016-12-03T10:08:17.177Z,988.26
2016-12-03T10:09:25.857Z,988.27
2016-12-03T10:10:34.545Z,988.22
2016-12-03T10:11:43.229Z,988.22
2016-12-03T10:12:51.918Z,988.24
2016-12-03T10:14:00.916Z,988.26
2016-12-03T10:15:09.622Z,988.25
2016-12-03T10:16:18.307Z,988.24
2016-12-03T10:17:26.991Z,988.2
2016-12-03T10:18:35.679Z,988.21
2016-12-03T10:19:44.369Z,988.28
2016-12-03T10:20:53.053Z,988.26
2016-12-03T10:22:01.738Z,988.21
2016-12-03T10:23:10.737Z,988.23
2016-12-03T10:24:19.422Z,988.2
2016-12-03T10:25:28.113Z,988.17
2016-12-03T10:26:36.804Z,988.16
2016-12-03T10:27:45.489Z,988.2
2016-12-03T10:28:54.175Z,988.19
2016-12-03T10:30:02.877Z,988.18
2016-12-03T10:31:11.565Z,988.23
2016-12-03T10:32:20.269Z,988.18
2016-12-03T10:33:28.956Z,988.16
2016-12-03T10:34:37.643Z,988.19
2016-12-03T10:35:46.332Z,988.16
2016-12-03T10:36:55.019Z,988.13
2016-12-03T10:38:03.708Z,988.17
2016-12-03T10:39:12.393Z,988.13
2016-12-03T10:40:21.075Z,988.15
2016-12-03T10:41:29.763Z,988.15
2016-12-03T10:42:38.445Z,988.14
2016-12-03T10:43:47.128Z,988.16
2016-12-03T10:44:55.814Z,988.16
2016-12-03T10:46:04.502Z,988.15
2016-12-03T10:47:13.185Z,988.14
2016-12-03T10:48:21.869Z,988.17
2016-12-03T10:49:30.557Z,988.15
2016-12-03T10:50:39.249Z,988.14
2016-12-03T10:51:47.930Z,988.16
2016-12-03T10:52:56.619Z,988.19
2016-12-03T10:54:05.308Z,988.19
2016-12-03T10:55:13.991Z,988.18
2016-12-03T10:56:22.678Z,988.22
2016-12-03T10:57:31.360Z,988.24
2016-12-03T10:58:40.048Z,988.23
2016-12-03T10:59:48.733Z,988.19
2016-12-03T11:00:57.418Z,988.23
2016-12-03T11:02:06.103Z,988.24
2016-12-03T11:03:14.792Z,988.28
2016-12-03T11:04:23.477Z,988.27
2016-12-03T11:05:32.161Z,988.28
2016-12-03T11:06:40.842Z,988.3
2016-12-03T11:07:49.523Z,988.27
2016-12-03T11:08:58.235Z,988.24
2016-12-03T11:10:06.924Z,988.24
2016-12-03T11:11:15.610Z,988.25
2016-12-03T11:12:24.301Z,988.26
2016-12-03T11:13:32.995Z,988.25
2016-12-03T11:14:41.685Z,988.24
2016-12-03T11:15:50.368Z,988.28
2016-12-03T11:16:59.054Z,988.25
2016-12-03T11:18:07.739Z,988.24
2016-12-03T11:19:16.430Z,988.32
2016-12-03T11:20:25.123Z,988.35
2016-12-03T11:21:33.805Z,988.38
2016-12-03T11:22:42.490Z,988.36
2016-12-03T11:23:51.176Z,988.37
2016-12-03T11:24:59.860Z,988.32
2016-12-03T11:26:08.548Z,988.34
2016-12-03T11:27:17.232Z,988.36
2016-12-03T11:28:25.915Z,988.34
2016-12-03T11:29:34.626Z,988.33
2016-12-03T11:30:43.310Z,988.34
2016-12-03T11:31:51.994Z,988.32
2016-12-03T11:33:00.680Z,988.32
2016-12-03T11:34:09.368Z,988.32
2016-12-03T11:35:18.055Z,988.33
2016-12-03T11:36:26.741Z,988.33
2016-12-03T11:37:35.432Z,988.33
2016-12-03T11:38:44.115Z,988.29
2016-12-03T11:39:52.802Z,988.29
2016-12-03T11:41:01.488Z,988.25
2016-12-03T11:42:10.180Z,988.3
2016-12-03T11:43:18.863Z,988.26
2016-12-03T11:44:27.547Z,988.24
2016-12-03T11:45:36.228Z,988.28
2016-12-03T11:46:44.916Z,988.3
2016-12-03T11:47:53.601Z,988.26
2016-12-03T11:49:02.286Z,988.29
2016-12-03T11:50:10.968Z,988.3
2016-12-03T11:51:19.657Z,988.3
2016-12-03T11:52:28.375Z,988.27
2016-12-03T11:53:37.063Z,988.26
2016-12-03T11:54:46.065Z,988.26
2016-12-03T11:55:54.748Z,988.22
2016-12-03T11:57:03.496Z,988.21
2016-12-03T11:58:12.187Z,988.23
2016-12-03T11:59:20.881Z,988.17
2016-12-03T12:00:29.567Z,988.16
2016-12-03T12:01:38.253Z,988.14
2016-12-03T12:02:46.938Z,988.18
2016-12-03T12:03:55.624Z,988.17
2016-12-03T12:05:04.308Z,988.17
2016-12-03T12:06:13.308Z,988.12
2016-12-03T12:07:21.992Z,988.16
2016-12-03T12:08:30.678Z,988.17
2016-12-03T12:09:39.362Z,988.14
2016-12-03T12:10:48.046Z,988.17
2016-12-03T12:11:56.731Z,988.13
2016-12-03T12:13:05.413Z,988.14
2016-12-03T12:14:14.104Z,988.11
2016-12-03T12:15:22.790Z,988.15
2016-12-03T12:16:31.476Z,988.16
2016-12-03T12:17:40.164Z,988.13
2016-12-03T12:18:48.855Z,988.1
2016-12-03T12:19:57.540Z,988.1
2016-12-03T12:21:06.230Z,988.12
2016-12-03T12:22:14.918Z,988.09
2016-12-03T12:23:23.602Z,988.12
2016-12-03T12:24:32.303Z,988.11
2016-12-03T12:25:40.994Z,988.16
2016-12-03T12:26:49.683Z,988.14
2016-12-03T12:27:58.685Z,988.14
2016-12-03T12:29:07.371Z,988.07
2016-12-03T12:30:16.052Z,988.16
2016-12-03T12:31:24.743Z,988.1
2016-12-03T12:32:33.424Z,988.11
2016-12-03T12:33:42.134Z,988.13
2016-12-03T12:34:50.832Z,988.12
2016-12-03T12:35:59.545Z,988.16
2016-12-03T12:37:08.228Z,988.17
2016-12-03T12:38:16.911Z,988.17
2016-12-03T12:39:25.593Z,988.13
2016-12-03T12:40:34.282Z,988.14
2016-12-03T12:41:42.973Z,988.09
2016-12-03T12:42:51.659Z,988.1
2016-12-03T12:44:00.365Z,988.11
2016-12-03T12:45:09.048Z,988.11
2016-12-03T12:46:17.731Z,988.1
2016-12-03T12:47:26.414Z,988.16
2016-12-03T12:48:35.105Z,988.17
2016-12-03T12:49:43.791Z,988.16
2016-12-03T12:50:52.470Z,988.17
2016-12-03T12:52:01.156Z,988.15
2016-12-03T12:53:09.845Z,988.15
2016-12-03T12:54:18.531Z,988.15
2016-12-03T12:55:27.210Z,988.17
2016-12-03T12:56:35.894Z,988.19
2016-12-03T12:57:44.584Z,988.17
2016-12-03T12:58:53.269Z,988.26
2016-12-03T13:00:01.954Z,988.24
2016-12-03T13:01:10.639Z,988.22
2016-12-03T13:02:19.325Z,988.25
2016-12-03T13:03:28.011Z,988.25
2016-12-03T13:04:36.701Z,988.28
2016-12-03T13:05:45.379Z,988.3
2016-12-03T13:06:54.059Z,988.32
2016-12-03T13:08:02.739Z,988.31
2016-12-03T13:09:11.426Z,988.29
2016-12-03T13:10:20.112Z,988.31
2016-12-03T13:11:28.796Z,988.31
2016-12-03T13:12:37.486Z,988.25
2016-12-03T13:13:46.171Z,988.26
2016-12-03T13:14:54.851Z,988.22
2016-12-03T13:16:03.858Z,988.2
2016-12-03T13:17:12.541Z,988.13
2016-12-03T13:18:21.221Z,988.13
2016-12-03T13:19:29.906Z,988.18
2016-12-03T13:20:38.593Z,988.2
2016-12-03T13:21:47.285Z,988.24
2016-12-03T13:22:55.965Z,988.27
2016-12-03T13:24:04.657Z,988.26
2016-12-03T13:25:13.344Z,988.24
2016-12-03T13:26:22.027Z,988.25
2016-12-03T13:27:30.711Z,988.27
2016-12-03T13:28:39.397Z,988.28
2016-12-03T13:29:48.082Z,988.26
2016-12-03T13:30:56.797Z,988.25
2016-12-03T13:32:05.486Z,988.25
2016-12-03T13:33:14.497Z,988.25
2016-12-03T13:34:23.183Z,988.27
2016-12-03T13:35:31.865Z,988.28
2016-12-03T13:36:40.604Z,988.3
2016-12-03T13:37:49.289Z,988.23
2016-12-03T13:38:57.977Z,988.21
2016-12-03T13:40:06.664Z,988.17
2016-12-03T13:41:15.350Z,988.17
2016-12-03T13:42:24.037Z,988.21
2016-12-03T13:43:32.726Z,988.26
2016-12-03T13:44:41.452Z,988.19
2016-12-03T13:45:50.142Z,988.21
2016-12-03T13:46:58.823Z,988.19
2016-12-03T13:48:07.827Z,988.19
2016-12-03T13:49:16.508Z,988.21
2016-12-03T13:50:25.193Z,988.22
2016-12-03T13:51:33.879Z,988.21
2016-12-03T13:52:42.561Z,988.25
2016-12-03T13:53:51.247Z,988.26
2016-12-03T13:54:59.934Z,988.22
2016-12-03T13:56:08.621Z,988.22
2016-12-03T13:57:17.300Z,988.22
2016-12-03T13:58:25.987Z,988.23
2016-12-03T13:59:34.673Z,988.18
2016-12-03T14:00:43.363Z,988.22
2016-12-03T14:01:52.044Z,988.25
2016-12-03T14:03:00.929Z,988.19
2016-12-03T14:04:09.622Z,988.24
2016-12-03T14:05:18.307Z,988.18
2016-12-03T14:06:26.990Z,988.17
2016-12-03T14:07:35.675Z,988.21
2016-12-03T14:08:44.357Z,988.18
2016-12-03T14:09:53.045Z,988.17
2016-12-03T14:11:01.740Z,988.16
2016-12-03T14:12:10.520Z,988.16
2016-12-03T14:13:19.561Z,988.2
2016-12-03T14:14:28.394Z,988.16
2016-12-03T14:15:37.738Z,988.18
2016-12-03T14:16:46.768Z,988.19
2016-12-03T14:17:55.580Z,988.21
2016-12-03T14:19:04.373Z,988.2
2016-12-03T14:20:13.129Z,988.23